Terminal Aerodrome Forecast
Issued by NWS Charleston, WV

Current Version | Previous Version | Text Only | Print | Product List | Glossary Off
Versions: 1 2 3 4 5 6 7 8 9 10 11 12 13 14 15 16 17 18 19 20 21 22 23 24 25 26

000
FTUS41 KRLX 260832 AAA
TAFCRW
TAF AMD
KCRW 260832Z 2609/2706 21004KT P6SM SCT080 WS010/30030KT
     FM261500 24011G18KT 3SM SHRA VCTS BKN035CB
     FM261900 25010G17KT 5SM -SHRA VCTS BKN035CB
     FM270200 VRB03KT 5SM -SHRA VCTS BKN040CB=

USA.gov is the U.S. government's official web portal to all federal, state and local government web resources and services.